Time;durP1;ratioP1;P1;durP2;ratioP2;P2;SDS_P1;SDS_P2;PMS_P1;PMS_P2;Temp;Humidity;BMP_temperature;BMP_pressure;BME280_temperature;BME280_humidity;BME280_pressure;Samples;Min_cycle;Max_cycle;Signal;HPM_P1;HPM_P2
2021/08/10 00:00:49;;;;;;;0.20;0.20;;;16.40;99.90;;;;;;4964708;28;20050;-85
2021/08/10 00:03:15;;;;;;;0.00;0.00;;;16.30;99.90;;;;;;4961471;28;20038;-84
2021/08/10 00:05:47;;;;;;;0.30;0.30;;;16.30;99.90;;;;;;4961331;28;20583;-86
2021/08/10 00:08:14;;;;;;;0.10;0.10;;;16.30;99.90;;;;;;4962438;28;20027;-85
2021/08/10 00:10:39;;;;;;;0.20;0.20;;;16.30;99.90;;;;;;4963374;28;20082;-85
2021/08/10 00:13:05;;;;;;;0.23;0.23;;;16.30;99.90;;;;;;4963619;28;20517;-85
2021/08/10 00:15:31;;;;;;;2.03;1.13;;;16.30;99.90;;;;;;4963009;28;20042;-85
2021/08/10 00:17:56;;;;;;;0.40;0.40;;;16.10;99.90;;;;;;4961956;28;20039;-84
2021/08/10 00:20:22;;;;;;;0.30;0.30;;;16.10;99.90;;;;;;4962461;28;20030;-85
2021/08/10 00:22:48;;;;;;;1.40;0.53;;;16.00;99.90;;;;;;4961925;28;20070;-85
2021/08/10 00:25:13;;;;;;;0.10;0.10;;;16.10;99.90;;;;;;4962773;28;20327;-84
2021/08/10 00:27:39;;;;;;;1.20;0.30;;;16.10;99.90;;;;;;4964390;28;20298;-83
2021/08/10 00:30:06;;;;;;;0.40;0.40;;;16.00;99.90;;;;;;4961006;28;20469;-85
2021/08/10 00:32:31;;;;;;;0.00;0.00;;;15.90;99.90;;;;;;4962266;28;20062;-85
2021/08/10 00:34:57;;;;;;;0.10;0.10;;;15.80;99.90;;;;;;4963090;28;20070;-85
2021/08/10 00:37:22;;;;;;;0.23;0.23;;;15.80;99.90;;;;;;4962323;28;20089;-84
2021/08/10 00:39:48;;;;;;;0.03;0.03;;;15.80;99.90;;;;;;4964881;28;20520;-85
2021/08/10 00:42:14;;;;;;;0.40;0.40;;;15.80;99.90;;;;;;4963022;28;20066;-85
2021/08/10 00:44:40;;;;;;;0.30;0.30;;;15.70;99.90;;;;;;4960874;28;20042;-85
2021/08/10 00:47:05;;;;;;;0.20;0.20;;;15.60;99.90;;;;;;4961484;28;20093;-84
2021/08/10 00:49:31;;;;;;;0.20;0.20;;;15.60;99.90;;;;;;4962074;28;20522;-85
2021/08/10 00:51:57;;;;;;;0.13;0.13;;;15.60;99.90;;;;;;4963519;28;20066;-85
2021/08/10 00:54:24;;;;;;;0.10;0.10;;;15.50;99.90;;;;;;4962790;28;20035;-85
2021/08/10 00:56:52;;;;;;;0.00;0.00;;;15.50;99.90;;;;;;4962534;28;20050;-85
2021/08/10 00:59:18;;;;;;;0.90;0.68;;;15.50;99.90;;;;;;4962255;28;20030;-85
2021/08/10 01:01:43;;;;;;;0.20;0.20;;;15.50;99.90;;;;;;4962867;28;20042;-85
2021/08/10 01:04:09;;;;;;;2.10;0.90;;;15.40;99.90;;;;;;4963702;28;20027;-85
2021/08/10 01:07:04;;;;;;;0.10;0.10;;;15.30;99.90;;;;;;4963419;28;20050;-85
2021/08/10 01:09:38;;;;;;;0.10;0.10;;;15.40;99.90;;;;;;4961649;28;20517;-85
2021/08/10 01:12:15;;;;;;;1.58;1.02;;;15.40;99.90;;;;;;4958062;28;20520;-85
2021/08/10 01:14:52;;;;;;;;;;;15.40;99.90;;;;;;4964471;28;20035;-85
2021/08/10 01:17:21;;;;;;;0.22;0.22;;;15.50;99.90;;;;;;4965696;28;19946;-84
2021/08/10 01:19:52;;;;;;;0.30;0.30;;;15.60;99.90;;;;;;4966540;28;20147;-86
2021/08/10 01:22:21;;;;;;;1.30;0.30;;;15.50;99.90;;;;;;4965346;28;20047;-85
2021/08/10 01:25:07;;;;;;;0.40;0.40;;;15.50;99.90;;;;;;4966561;28;20034;-85
2021/08/10 01:28:10;;;;;;;0.25;0.25;;;15.40;99.90;;;;;;4887423;29;20124;-85
2021/08/10 01:30:47;;;;;;;0.43;0.43;;;15.40;99.90;;;;;;4887681;29;20029;-84
2021/08/10 01:33:13;;;;;;;0.10;0.10;;;15.40;99.90;;;;;;4884725;29;20041;-85
2021/08/10 01:35:40;;;;;;;0.50;0.47;;;15.40;99.90;;;;;;4887304;29;20613;-85
2021/08/10 01:38:07;;;;;;;0.65;0.65;;;15.50;99.90;;;;;;4886828;29;20135;-84
2021/08/10 01:40:33;;;;;;;0.20;0.20;;;15.50;99.90;;;;;;4885674;29;20068;-84
2021/08/10 01:43:02;;;;;;;0.10;0.10;;;15.50;99.90;;;;;;4870873;29;20033;-85
2021/08/10 01:45:29;;;;;;;0.43;0.30;;;15.50;99.90;;;;;;4870874;29;20072;-85
2021/08/10 01:47:55;;;;;;;0.13;0.13;;;15.50;99.90;;;;;;4870532;29;20481;-85
2021/08/10 01:50:23;;;;;;;0.20;0.20;;;15.50;99.90;;;;;;4885305;29;20059;-85
2021/08/10 01:52:49;;;;;;;0.63;0.60;;;15.50;99.90;;;;;;4887090;29;20048;-85
2021/08/10 01:55:19;;;;;;;0.10;0.10;;;15.40;99.90;;;;;;4887398;29;20063;-85
2021/08/10 01:57:45;;;;;;;0.10;0.10;;;15.30;99.90;;;;;;4870420;29;20033;-86
2021/08/10 02:00:11;;;;;;;0.30;0.13;;;15.30;99.90;;;;;;4868700;29;20037;-85
2021/08/10 02:02:37;;;;;;;0.45;0.45;;;15.20;99.90;;;;;;4880981;29;20641;-85
2021/08/10 02:05:04;;;;;;;0.20;0.20;;;15.30;99.90;;;;;;4938225;28;20046;-85
2021/08/10 02:07:31;;;;;;;0.20;0.20;;;15.20;99.90;;;;;;4964814;28;20067;-84
2021/08/10 02:09:58;;;;;;;0.20;0.20;;;15.20;99.90;;;;;;4965808;28;20023;-87
2021/08/10 02:12:24;;;;;;;0.10;0.10;;;15.20;99.90;;;;;;4963993;28;20769;-85
2021/08/10 02:14:50;;;;;;;0.40;0.40;;;15.10;99.90;;;;;;4963177;28;20154;-85
2021/08/10 02:17:16;;;;;;;0.20;0.20;;;15.10;99.90;;;;;;4964553;28;20031;-85
2021/08/10 02:19:43;;;;;;;0.00;0.00;;;15.20;99.90;;;;;;4962813;28;20434;-84
2021/08/10 02:22:11;;;;;;;0.20;0.20;;;15.20;99.90;;;;;;4966099;28;20062;-85
2021/08/10 02:24:40;;;;;;;0.10;0.10;;;15.20;99.90;;;;;;4962782;28;20125;-84
2021/08/10 02:27:09;;;;;;;0.35;0.35;;;15.10;99.90;;;;;;4965234;28;20125;-85
2021/08/10 02:29:39;;;;;;;0.20;0.20;;;15.10;99.90;;;;;;4962982;28;20081;-85
2021/08/10 02:32:07;;;;;;;0.17;0.17;;;15.00;99.90;;;;;;4964402;28;20536;-85
2021/08/10 02:34:33;;;;;;;0.10;0.10;;;15.00;99.90;;;;;;4958488;28;20114;-85
2021/08/10 02:37:00;;;;;;;0.20;0.20;;;15.00;99.90;;;;;;4964135;28;20038;-84
2021/08/10 02:39:27;;;;;;;;;;;15.10;99.90;;;;;;4964109;28;20078;-85
2021/08/10 02:41:55;;;;;;;0.10;0.10;;;14.90;99.90;;;;;;4962734;28;19922;-85
2021/08/10 02:44:23;;;;;;;0.20;0.20;;;15.00;99.90;;;;;;4965406;28;20604;-85
2021/08/10 02:46:49;;;;;;;0.80;0.43;;;15.00;99.90;;;;;;4962117;28;20039;-86
2021/08/10 02:49:15;;;;;;;0.27;0.27;;;14.90;99.90;;;;;;4965087;28;20085;-84
2021/08/10 02:51:41;;;;;;;0.20;0.20;;;14.90;99.90;;;;;;4965863;28;20042;-84
2021/08/10 02:54:07;;;;;;;0.60;0.60;;;14.90;99.90;;;;;;4961861;28;20058;-84
2021/08/10 02:56:43;;;;;;;0.10;0.10;;;14.80;99.90;;;;;;4961642;28;20544;-84
2021/08/10 02:59:25;;;;;;;1.25;0.30;;;14.80;99.90;;;;;;4960695;28;20031;-85
2021/08/10 03:02:03;;;;;;;0.10;0.10;;;14.90;99.90;;;;;;4963682;28;20030;-85
2021/08/10 03:04:30;;;;;;;0.20;0.20;;;14.80;99.90;;;;;;4963921;28;20037;-85
2021/08/10 03:06:57;;;;;;;2.67;0.52;;;14.60;99.90;;;;;;4966436;28;20150;-84
2021/08/10 03:09:23;;;;;;;;;;;14.60;99.90;;;;;;4964255;28;20030;-84
2021/08/10 03:11:53;;;;;;;0.38;0.38;;;14.70;99.90;;;;;;4960272;28;19914;-85
2021/08/10 03:14:19;;;;;;;3.63;1.08;;;14.70;99.90;;;;;;4964386;28;20030;-85
2021/08/10 03:16:47;;;;;;;2.83;0.70;;;14.70;99.90;;;;;;4963716;28;20543;-84
2021/08/10 03:19:16;;;;;;;0.43;0.35;;;14.70;99.90;;;;;;4964916;28;20041;-84
2021/08/10 03:21:43;;;;;;;0.43;0.43;;;14.70;99.90;;;;;;4965313;28;20486;-85
2021/08/10 03:24:10;;;;;;;0.40;0.40;;;14.70;99.90;;;;;;4963224;28;20055;-84
2021/08/10 03:26:36;;;;;;;0.25;0.25;;;14.70;99.90;;;;;;4963360;28;20398;-84
2021/08/10 03:29:02;;;;;;;1.83;0.43;;;14.60;99.90;;;;;;4963621;28;20046;-84
2021/08/10 03:31:29;;;;;;;1.45;0.35;;;14.60;99.90;;;;;;4963455;28;20466;-85
2021/08/10 03:33:55;;;;;;;0.22;0.22;;;14.60;99.90;;;;;;4959765;28;20521;-84
2021/08/10 03:36:24;;;;;;;0.10;0.10;;;14.60;99.90;;;;;;4962840;28;20026;-84
2021/08/10 03:38:50;;;;;;;0.10;0.10;;;14.50;99.90;;;;;;4963293;28;20042;-84
2021/08/10 03:41:17;;;;;;;0.47;0.47;;;14.40;99.90;;;;;;4962897;28;20031;-84
2021/08/10 03:43:43;;;;;;;0.20;0.20;;;14.50;99.90;;;;;;4962588;28;20039;-84
2021/08/10 03:46:09;;;;;;;0.20;0.20;;;14.40;99.90;;;;;;4964130;28;20057;-85
2021/08/10 03:48:42;;;;;;;0.20;0.20;;;14.40;99.90;;;;;;4963825;28;20078;-85
2021/08/10 03:51:09;;;;;;;0.30;0.30;;;14.60;99.90;;;;;;4964305;28;20629;-84
2021/08/10 03:53:35;;;;;;;0.10;0.10;;;14.50;99.90;;;;;;4963105;28;20035;-84
2021/08/10 03:56:02;;;;;;;0.20;0.20;;;14.40;99.90;;;;;;4964018;28;20042;-85
2021/08/10 03:58:32;;;;;;;0.10;0.10;;;14.50;99.90;;;;;;4961432;28;20035;-84
2021/08/10 04:00:59;;;;;;;0.75;0.75;;;14.40;99.90;;;;;;4965120;28;20481;-84
2021/08/10 04:03:30;;;;;;;0.10;0.10;;;14.40;99.90;;;;;;4962821;28;20081;-85
2021/08/10 04:05:59;;;;;;;0.10;0.10;;;14.40;99.90;;;;;;4962814;28;20027;-85
2021/08/10 04:08:25;;;;;;;0.80;0.43;;;14.50;99.90;;;;;;4963570;28;20458;-84
2021/08/10 04:10:52;;;;;;;0.52;0.52;;;14.40;99.90;;;;;;4963860;28;20019;-85
2021/08/10 04:13:19;;;;;;;0.10;0.10;;;14.30;99.90;;;;;;4963759;28;20038;-85
2021/08/10 04:15:47;;;;;;;4.78;0.38;;;14.40;99.90;;;;;;4963343;28;20039;-84
2021/08/10 04:18:15;;;;;;;0.32;0.32;;;14.40;99.90;;;;;;4962936;28;20181;-84
2021/08/10 04:20:44;;;;;;;0.10;0.10;;;14.40;99.90;;;;;;4962463;28;20030;-85
2021/08/10 04:23:10;;;;;;;0.43;0.43;;;14.40;99.90;;;;;;4958240;28;20109;-85
2021/08/10 04:25:36;;;;;;;0.30;0.30;;;14.40;99.90;;;;;;4964139;28;20089;-84
2021/08/10 04:28:02;;;;;;;0.30;0.30;;;14.30;99.90;;;;;;4965323;28;20093;-84
2021/08/10 04:30:28;;;;;;;0.10;0.10;;;14.30;99.90;;;;;;4962031;28;20041;-85
2021/08/10 04:32:53;;;;;;;0.57;0.57;;;14.40;99.90;;;;;;4962805;28;20039;-84
2021/08/10 04:35:19;;;;;;;0.10;0.10;;;14.40;99.90;;;;;;4962484;28;20053;-85
2021/08/10 04:37:45;;;;;;;0.10;0.10;;;14.40;99.90;;;;;;4963052;28;20147;-85
2021/08/10 04:40:10;;;;;;;0.10;0.10;;;14.50;99.90;;;;;;4964606;28;20041;-84
2021/08/10 04:42:36;;;;;;;0.50;0.40;;;14.60;99.90;;;;;;4961808;28;20122;-86
2021/08/10 04:45:03;;;;;;;0.10;0.10;;;14.50;99.90;;;;;;4963406;28;20054;-84
2021/08/10 04:47:28;;;;;;;0.20;0.20;;;14.50;99.90;;;;;;4962928;28;20038;-85
2021/08/10 04:49:54;;;;;;;0.20;0.20;;;14.50;99.90;;;;;;4966132;28;20263;-85
2021/08/10 04:52:21;;;;;;;0.20;0.20;;;14.40;99.90;;;;;;4966594;28;20552;-85
2021/08/10 04:54:47;;;;;;;0.20;0.20;;;14.50;99.90;;;;;;4967156;28;20038;-85
2021/08/10 04:57:13;;;;;;;0.20;0.20;;;14.50;99.90;;;;;;4964363;28;20034;-85
2021/08/10 04:59:39;;;;;;;0.60;0.60;;;14.60;99.90;;;;;;4966792;28;20030;-85
2021/08/10 05:02:04;;;;;;;0.20;0.20;;;14.60;99.90;;;;;;4960937;28;20039;-85
2021/08/10 05:04:30;;;;;;;0.20;0.20;;;14.80;99.90;;;;;;4964278;28;20031;-87
2021/08/10 05:06:56;;;;;;;0.50;0.50;;;15.10;99.90;;;;;;4967611;28;20038;-84
2021/08/10 05:09:22;;;;;;;0.10;0.10;;;15.00;99.90;;;;;;4966202;28;20513;-84
2021/08/10 05:11:47;;;;;;;0.22;0.22;;;14.90;99.90;;;;;;4966071;28;20114;-84
2021/08/10 05:14:13;;;;;;;0.40;0.40;;;15.10;99.90;;;;;;4962838;28;20097;-84
2021/08/10 05:16:39;;;;;;;0.27;0.27;;;15.40;99.90;;;;;;4966277;28;20055;-84
2021/08/10 05:19:04;;;;;;;0.20;0.20;;;15.80;99.90;;;;;;4967676;28;20654;-84
2021/08/10 05:21:30;;;;;;;0.37;0.37;;;15.40;99.90;;;;;;4960082;28;20038;-83
2021/08/10 05:23:56;;;;;;;0.43;0.43;;;15.20;99.90;;;;;;4963605;28;20046;-85
2021/08/10 05:26:24;;;;;;;0.63;0.63;;;15.50;99.90;;;;;;4965230;28;20867;-85
2021/08/10 05:28:50;;;;;;;0.20;0.20;;;15.70;99.90;;;;;;4965652;28;20030;-86
2021/08/10 05:31:15;;;;;;;0.47;0.47;;;16.50;99.90;;;;;;4966304;28;20101;-86
2021/08/10 05:33:42;;;;;;;0.10;0.10;;;16.90;99.90;;;;;;4961313;28;20037;-86
2021/08/10 05:36:08;;;;;;;0.10;0.10;;;16.30;99.90;;;;;;4964678;28;20061;-87
2021/08/10 05:38:33;;;;;;;0.10;0.10;;;16.70;99.90;;;;;;4964035;28;20062;-87
2021/08/10 05:40:59;;;;;;;0.17;0.17;;;17.40;99.90;;;;;;4964153;28;20192;-85
2021/08/10 05:43:25;;;;;;;9.17;1.70;;;17.90;99.90;;;;;;4961377;28;20039;-86
2021/08/10 05:45:50;;;;;;;0.13;0.13;;;18.30;99.90;;;;;;4967174;28;20023;-85
2021/08/10 05:48:16;;;;;;;0.20;0.20;;;18.90;99.90;;;;;;4965087;28;20039;-89
2021/08/10 05:50:42;;;;;;;0.50;0.50;;;17.90;99.90;;;;;;4966015;28;20037;-89
2021/08/10 05:53:07;;;;;;;0.00;0.00;;;17.30;99.90;;;;;;4964996;28;20037;-87
2021/08/10 05:55:33;;;;;;;0.30;0.30;;;17.80;99.90;;;;;;4966180;28;20059;-88
2021/08/10 05:57:59;;;;;;;0.33;0.20;;;17.70;99.90;;;;;;4963633;28;20444;-89
2021/08/10 06:00:24;;;;;;;0.30;0.30;;;17.50;99.90;;;;;;4949821;28;20035;-87
2021/08/10 06:02:50;;;;;;;0.17;0.17;;;17.80;99.90;;;;;;4958350;28;20027;-87
2021/08/10 06:05:16;;;;;;;0.10;0.10;;;18.00;99.90;;;;;;4966390;28;20484;-88
2021/08/10 06:07:41;;;;;;;0.13;0.13;;;18.40;99.90;;;;;;4964969;28;20478;-89
2021/08/10 06:10:08;;;;;;;0.50;0.50;;;18.80;99.90;;;;;;4967939;28;20074;-87
2021/08/10 06:12:33;;;;;;;0.00;0.00;;;18.80;99.90;;;;;;4965486;28;20325;-83
2021/08/10 06:15:00;;;;;;;2.90;0.83;;;19.90;99.90;;;;;;4964926;28;20039;-84
2021/08/10 06:17:26;;;;;;;0.10;0.10;;;20.90;99.90;;;;;;4964507;28;20101;-84
2021/08/10 06:19:52;;;;;;;0.00;0.00;;;21.10;99.90;;;;;;4965140;28;20382;-84
2021/08/10 06:22:17;;;;;;;0.00;0.00;;;20.70;99.90;;;;;;4965000;28;20121;-85
2021/08/10 06:24:43;;;;;;;0.00;0.00;;;21.30;99.90;;;;;;4961739;28;20655;-84
2021/08/10 06:27:09;;;;;;;0.00;0.00;;;22.10;99.90;;;;;;4963401;28;20042;-85
2021/08/10 06:29:34;;;;;;;0.30;0.13;;;22.20;99.90;;;;;;4965261;28;20069;-84
2021/08/10 06:32:00;;;;;;;0.10;0.10;;;21.80;99.90;;;;;;4962142;28;20036;-85
2021/08/10 06:34:26;;;;;;;0.00;0.00;;;21.60;99.90;;;;;;4957330;28;20496;-84
2021/08/10 06:36:52;;;;;;;0.10;0.10;;;21.40;99.90;;;;;;4965945;28;20033;-85
2021/08/10 06:39:17;;;;;;;0.15;0.10;;;21.90;99.90;;;;;;4964844;28;20035;-85
2021/08/10 06:41:43;;;;;;;0.00;0.00;;;21.50;99.90;;;;;;4961862;28;20823;-85
2021/08/10 06:44:09;;;;;;;0.00;0.00;;;22.20;99.90;;;;;;4963704;28;20054;-85
2021/08/10 06:46:35;;;;;;;0.00;0.00;;;22.70;99.90;;;;;;4964005;28;20129;-86
2021/08/10 06:49:01;;;;;;;2.50;0.30;;;24.00;99.90;;;;;;4965163;28;20058;-84
2021/08/10 06:51:26;;;;;;;4.50;1.08;;;24.00;99.90;;;;;;4963691;28;20041;-84
2021/08/10 06:53:52;;;;;;;0.30;0.30;;;24.10;99.90;;;;;;4961975;28;20038;-85
2021/08/10 06:56:18;;;;;;;0.00;0.00;;;23.90;99.90;;;;;;4964750;28;20034;-85
2021/08/10 06:58:43;;;;;;;0.30;0.27;;;23.90;99.90;;;;;;4964910;28;20030;-85
2021/08/10 07:01:09;;;;;;;0.30;0.30;;;24.10;99.90;;;;;;4958301;28;20043;-86
2021/08/10 07:03:34;;;;;;;0.10;0.10;;;24.60;99.90;;;;;;4963880;28;20051;-86
2021/08/10 07:06:00;;;;;;;0.10;0.07;;;25.00;99.90;;;;;;4964095;28;20294;-86
2021/08/10 07:08:26;;;;;;;0.13;0.13;;;25.10;99.90;;;;;;4964053;28;20556;-85
2021/08/10 07:10:51;;;;;;;0.00;0.00;;;25.20;99.90;;;;;;4951562;28;20027;-85
2021/08/10 07:13:17;;;;;;;0.20;0.20;;;25.40;99.90;;;;;;4965353;28;20275;-86
2021/08/10 07:15:43;;;;;;;0.35;0.35;;;25.20;99.90;;;;;;4959293;28;20027;-87
2021/08/10 07:18:08;;;;;;;0.00;0.00;;;25.60;99.90;;;;;;4959139;28;20077;-84
2021/08/10 07:20:34;;;;;;;0.10;0.10;;;25.60;99.90;;;;;;4963892;28;20053;-84
2021/08/10 07:23:00;;;;;;;0.20;0.17;;;25.70;99.00;;;;;;4945522;28;20134;-84
2021/08/10 07:25:26;;;;;;;0.17;0.17;;;26.40;98.40;;;;;;4940444;28;20051;-84
2021/08/10 07:27:52;;;;;;;0.30;0.30;;;26.20;98.40;;;;;;4946470;28;20054;-83
2021/08/10 07:30:18;;;;;;;0.15;0.15;;;26.70;98.40;;;;;;4947377;28;20417;-85
2021/08/10 07:32:44;;;;;;;0.00;0.00;;;27.70;95.90;;;;;;4945461;28;20054;-85
2021/08/10 07:35:10;;;;;;;0.00;0.00;;;27.70;93.30;;;;;;4942762;28;20070;-84
2021/08/10 07:37:41;;;;;;;0.93;0.75;;;27.00;93.60;;;;;;4959590;28;20059;-84
2021/08/10 07:40:11;;;;;;;0.28;0.25;;;27.20;93.90;;;;;;4938820;29;20039;-84
2021/08/10 07:42:37;;;;;;;0.10;0.10;;;26.80;93.50;;;;;;4948977;28;20031;-84
2021/08/10 07:45:05;;;;;;;0.22;0.22;;;28.00;93.50;;;;;;4940544;28;20513;-85
2021/08/10 07:47:30;;;;;;;0.30;0.30;;;28.20;91.90;;;;;;4943384;29;20054;-85
2021/08/10 07:49:56;;;;;;;0.40;0.35;;;29.80;90.60;;;;;;4931527;29;20035;-84
2021/08/10 07:52:22;;;;;;;0.20;0.10;;;29.40;84.90;;;;;;4939649;29;20044;-84
2021/08/10 07:54:47;;;;;;;0.25;0.22;;;29.40;86.10;;;;;;4952093;28;20027;-83
2021/08/10 07:57:13;;;;;;;0.00;0.00;;;29.70;80.30;;;;;;4936828;29;20036;-86
2021/08/10 07:59:39;;;;;;;0.63;0.47;;;28.80;83.80;;;;;;4932424;29;20118;-85
2021/08/10 08:02:05;;;;;;;0.10;0.10;;;30.00;81.50;;;;;;4932011;29;20122;-85
2021/08/10 08:04:34;;;;;;;0.00;0.00;;;30.30;78.50;;;;;;4926643;29;20059;-85
2021/08/10 08:07:00;;;;;;;0.20;0.10;;;32.70;70.00;;;;;;4943419;28;20050;-85
2021/08/10 08:09:25;;;;;;;0.00;0.00;;;32.10;69.50;;;;;;4932764;28;20770;-85
2021/08/10 08:11:51;;;;;;;;;;;33.10;67.10;;;;;;4931458;29;20836;-85
2021/08/10 08:14:20;;;;;;;0.00;0.00;;;33.90;63.00;;;;;;4932549;28;20013;-83
2021/08/10 08:16:46;;;;;;;1.55;0.73;;;34.70;57.00;;;;;;4930574;28;20032;-84
2021/08/10 08:19:12;;;;;;;0.17;0.17;;;33.90;55.30;;;;;;4928972;29;20110;-84
2021/08/10 08:21:37;;;;;;;;;;;34.90;54.80;;;;;;4932741;29;20067;-84
2021/08/10 08:24:04;;;;;;;0.05;0.05;;;37.30;56.00;;;;;;4952041;28;19929;-85
2021/08/10 08:26:29;;;;;;;;;;;33.70;53.90;;;;;;4949337;28;20027;-84
2021/08/10 08:28:55;;;;;;;0.10;0.10;;;31.60;62.80;;;;;;4949757;28;19918;-85
2021/08/10 08:31:21;;;;;;;0.05;0.05;;;31.30;60.00;;;;;;4952067;28;20027;-85
2021/08/10 08:33:47;;;;;;;0.00;0.00;;;31.60;59.40;;;;;;4949564;28;20038;-84
2021/08/10 08:36:12;;;;;;;0.10;0.10;;;31.70;60.70;;;;;;4958954;28;20873;-84
2021/08/10 08:38:38;;;;;;;0.10;0.10;;;30.20;60.10;;;;;;4962964;28;20459;-84
2021/08/10 08:41:05;;;;;;;0.28;0.28;;;27.00;72.10;;;;;;4958253;28;20176;-84
2021/08/10 08:43:31;;;;;;;0.00;0.00;;;24.90;81.70;;;;;;4960667;28;20038;-84
2021/08/10 08:45:57;;;;;;;0.00;0.00;;;23.80;85.30;;;;;;4957206;28;20039;-85
2021/08/10 08:48:25;;;;;;;0.08;0.08;;;23.60;88.90;;;;;;4960383;28;20051;-85
2021/08/10 08:50:51;;;;;;;0.00;0.00;;;23.70;90.30;;;;;;4959851;28;20134;-85
2021/08/10 08:53:18;;;;;;;0.05;0.00;;;23.70;91.40;;;;;;4952228;28;20676;-84
2021/08/10 08:55:44;;;;;;;;;;;23.40;98.70;;;;;;4963143;28;20119;-84
2021/08/10 08:58:10;;;;;;;0.10;0.10;;;23.40;93.00;;;;;;4961317;28;19921;-84
2021/08/10 09:00:36;;;;;;;0.00;0.00;;;23.10;94.30;;;;;;4961376;28;20030;-85
2021/08/10 09:03:01;;;;;;;0.07;0.07;;;23.00;95.10;;;;;;4948237;28;20086;-85
2021/08/10 09:05:27;;;;;;;0.00;0.00;;;22.80;96.50;;;;;;4946073;28;20023;-86
2021/08/10 09:07:55;;;;;;;0.00;0.00;;;22.60;97.10;;;;;;4944872;28;20043;-85
2021/08/10 09:10:28;;;;;;;0.10;0.10;;;22.50;98.30;;;;;;4945704;28;20027;-82
2021/08/10 09:12:56;;;;;;;0.03;0.03;;;22.50;98.40;;;;;;4947880;28;20027;-85
2021/08/10 09:15:29;;;;;;;0.13;0.13;;;22.70;97.20;;;;;;4948181;28;20500;-84
2021/08/10 09:17:55;;;;;;;3.72;0.20;;;22.50;97.80;;;;;;4954211;28;20099;-84
2021/08/10 09:20:22;;;;;;;0.20;0.20;;;22.30;99.90;;;;;;4958975;28;20031;-84
2021/08/10 09:22:54;;;;;;;0.20;0.17;;;22.30;98.90;;;;;;4948964;28;20049;-83
2021/08/10 09:25:22;;;;;;;0.25;0.15;;;22.60;99.90;;;;;;4955905;28;20122;-84
2021/08/10 09:27:47;;;;;;;0.17;0.17;;;22.20;99.90;;;;;;4950601;28;20070;-84
2021/08/10 09:30:25;;;;;;;0.20;0.20;;;22.50;99.90;;;;;;4952021;28;20058;-83
2021/08/10 09:32:58;;;;;;;0.10;0.10;;;22.90;99.90;;;;;;4953000;28;20035;-84
2021/08/10 09:35:29;;;;;;;0.20;0.20;;;25.00;99.60;;;;;;4953663;28;20035;-83
2021/08/10 09:38:06;;;;;;;0.00;0.00;;;27.10;95.10;;;;;;4955934;28;20418;-83
2021/08/10 09:40:35;;;;;;;0.00;0.00;;;32.60;80.20;;;;;;4952478;28;20038;-83
2021/08/10 09:43:19;;;;;;;0.00;0.00;;;35.00;67.40;;;;;;4957779;28;20545;-84
2021/08/10 09:45:46;;;;;;;0.10;0.10;;;32.40;61.40;;;;;;4959001;28;20026;-84
2021/08/10 09:48:17;;;;;;;;;;;27.40;73.40;;;;;;4957785;28;20060;-84
2021/08/10 09:50:44;;;;;;;0.30;0.08;;;25.30;88.80;;;;;;4954042;28;19950;-85
2021/08/10 09:53:17;;;;;;;0.13;0.10;;;24.60;90.60;;;;;;4954615;28;20421;-84
2021/08/10 09:55:56;;;;;;;0.20;0.08;;;24.90;90.20;;;;;;4957727;28;20026;-84
2021/08/10 09:58:23;;;;;;;0.05;0.05;;;23.70;92.70;;;;;;4958439;28;20027;-85
2021/08/10 10:00:51;;;;;;;0.28;0.28;;;23.50;94.00;;;;;;4954699;28;20030;-86
2021/08/10 10:03:25;;;;;;;0.20;0.10;;;23.10;95.40;;;;;;4956628;28;20050;-84
2021/08/10 10:05:52;;;;;;;0.60;0.32;;;22.60;97.20;;;;;;4953913;28;20035;-85
2021/08/10 10:08:18;;;;;;;0.05;0.05;;;22.20;98.10;;;;;;4950535;28;20042;-84
2021/08/10 10:10:44;;;;;;;1.00;0.10;;;22.30;98.50;;;;;;4952470;28;20122;-85
2021/08/10 10:13:12;;;;;;;0.50;0.25;;;22.30;99.90;;;;;;4958058;28;20095;-84
2021/08/10 10:15:39;;;;;;;0.10;0.03;;;22.50;98.60;;;;;;4953198;28;20039;-85
2021/08/10 10:18:06;;;;;;;0.00;0.00;;;23.00;98.90;;;;;;4960023;28;20050;-85
2021/08/10 10:20:34;;;;;;;0.00;0.00;;;23.20;99.00;;;;;;4962832;28;20046;-87
2021/08/10 10:23:03;;;;;;;0.10;0.10;;;22.90;99.90;;;;;;4963126;28;20185;-85
2021/08/10 10:25:30;;;;;;;0.17;0.13;;;22.90;99.90;;;;;;4962335;28;20042;-87
2021/08/10 10:27:59;;;;;;;0.10;0.10;;;23.20;99.60;;;;;;4966690;28;20050;-86
2021/08/10 10:30:26;;;;;;;0.10;0.10;;;23.50;99.50;;;;;;4962380;28;20093;-84
2021/08/10 10:32:53;;;;;;;0.00;0.00;;;24.30;98.80;;;;;;4963981;28;20039;-85
2021/08/10 10:35:19;;;;;;;0.10;0.10;;;24.20;99.90;;;;;;4961005;28;20026;-86
2021/08/10 10:37:50;;;;;;;0.10;0.03;;;24.50;99.20;;;;;;4951136;28;20027;-86
2021/08/10 10:40:18;;;;;;;0.13;0.10;;;24.80;98.20;;;;;;4965431;28;20430;-87
2021/08/10 10:42:46;;;;;;;0.00;0.00;;;24.90;98.90;;;;;;4958334;28;20023;-85
2021/08/10 10:45:31;;;;;;;0.17;0.10;;;24.30;98.10;;;;;;4958055;28;20030;-85
2021/08/10 10:47:56;;;;;;;0.50;0.40;;;23.80;99.50;;;;;;4953032;28;20038;-87
2021/08/10 10:50:22;;;;;;;0.47;0.10;;;23.90;99.40;;;;;;4953444;28;20030;-86
2021/08/10 10:53:06;;;;;;;0.00;0.00;;;23.90;99.90;;;;;;4955736;28;20085;-85
2021/08/10 10:55:38;;;;;;;0.20;0.20;;;26.40;96.20;;;;;;4949403;28;20031;-85
2021/08/10 10:58:24;;;;;;;0.20;0.20;;;27.60;91.80;;;;;;4953106;28;20424;-86
2021/08/10 11:01:18;;;;;;;0.00;0.00;;;26.60;94.00;;;;;;4953510;28;20062;-84
2021/08/10 11:04:03;;;;;;;0.20;0.15;;;28.70;93.80;;;;;;4955601;28;20062;-85
2021/08/10 11:06:31;;;;;;;0.10;0.10;;;26.90;93.50;;;;;;4959695;28;20060;-85
2021/08/10 11:08:58;;;;;;;0.20;0.20;;;26.30;93.80;;;;;;4962031;28;20062;-85
2021/08/10 11:11:51;;;;;;;0.00;0.00;;;25.90;94.20;;;;;;4963590;28;20098;-85
2021/08/10 11:14:35;;;;;;;0.05;0.05;;;25.60;94.60;;;;;;4956418;28;20043;-85
2021/08/10 11:17:21;;;;;;;0.25;0.15;;;25.70;93.50;;;;;;4962049;28;20039;-84
2021/08/10 11:19:48;;;;;;;0.30;0.10;;;25.90;99.90;;;;;;4957567;28;20689;-84
2021/08/10 11:22:17;;;;;;;0.75;0.38;;;26.60;92.60;;;;;;4963776;28;20048;-85
2021/08/10 11:24:53;;;;;;;0.10;0.10;;;27.20;97.20;;;;;;4960163;28;20034;-85
2021/08/10 11:27:31;;;;;;;0.00;0.00;;;27.50;91.30;;;;;;4961538;28;20282;-85
2021/08/10 11:29:58;;;;;;;0.15;0.15;;;26.50;94.00;;;;;;4961660;28;20058;-86
2021/08/10 11:32:47;;;;;;;0.17;0.15;;;26.70;94.10;;;;;;4960884;28;20030;-87
2021/08/10 11:35:34;;;;;;;0.17;0.17;;;26.10;97.90;;;;;;4953606;28;20031;-85
2021/08/10 11:38:16;;;;;;;0.30;0.20;;;26.20;93.40;;;;;;4955630;28;20681;-87
2021/08/10 11:41:00;;;;;;;0.20;0.20;;;25.70;93.10;;;;;;4957316;28;20032;-87
2021/08/10 11:43:52;;;;;;;0.60;0.50;;;26.20;93.40;;;;;;4961412;28;20045;-86
2021/08/10 11:46:33;;;;;;;0.10;0.10;;;25.90;92.70;;;;;;4962296;28;20033;-86
2021/08/10 11:49:15;;;;;;;0.03;0.03;;;26.10;93.20;;;;;;4966771;28;20047;-85
2021/08/10 11:51:44;;;;;;;0.63;0.63;;;26.10;94.00;;;;;;4964913;28;20093;-86
2021/08/10 11:54:09;;;;;;;0.05;0.03;;;25.80;92.70;;;;;;4964652;28;20039;-85
2021/08/10 11:56:46;;;;;;;0.40;0.30;;;25.80;92.50;;;;;;4962428;28;20054;-86
2021/08/10 11:59:15;;;;;;;0.00;0.00;;;25.90;93.00;;;;;;4963993;28;20038;-86
2021/08/10 12:01:41;;;;;;;0.20;0.20;;;26.10;92.10;;;;;;4963325;28;20111;-85
2021/08/10 12:04:14;;;;;;;0.10;0.10;;;26.30;92.20;;;;;;4965521;28;20466;-85
2021/08/10 12:06:42;;;;;;;0.55;0.38;;;26.40;92.50;;;;;;4963958;28;20030;-85
2021/08/10 12:09:09;;;;;;;0.38;0.30;;;26.00;92.00;;;;;;4962837;28;20034;-86
2021/08/10 12:11:35;;;;;;;0.10;0.10;;;26.00;92.50;;;;;;4960170;28;20041;-86
2021/08/10 12:14:13;;;;;;;0.30;0.30;;;25.80;91.70;;;;;;4963095;28;20065;-85
2021/08/10 12:16:55;;;;;;;0.00;0.00;;;25.70;92.70;;;;;;4946824;28;20081;-85
2021/08/10 12:19:38;;;;;;;0.10;0.10;;;25.70;92.10;;;;;;4960793;28;20041;-86
2021/08/10 12:22:17;;;;;;;0.00;0.00;;;25.80;92.00;;;;;;4962973;28;20035;-86
2021/08/10 12:24:44;;;;;;;0.30;0.30;;;25.90;92.10;;;;;;4963917;28;20023;-85
2021/08/10 12:27:13;;;;;;;0.00;0.00;;;25.70;91.40;;;;;;4953239;28;20031;-85
2021/08/10 12:29:41;;;;;;;0.08;0.08;;;25.90;91.80;;;;;;4954873;28;20040;-84
2021/08/10 12:32:09;;;;;;;0.20;0.20;;;26.00;91.20;;;;;;4951939;28;20041;-85
2021/08/10 12:34:37;;;;;;;0.10;0.10;;;26.10;91.30;;;;;;4947868;28;20801;-84
2021/08/10 12:37:05;;;;;;;0.00;0.00;;;26.00;90.40;;;;;;4960446;28;20485;-85
2021/08/10 12:39:36;;;;;;;2.17;0.75;;;26.10;90.20;;;;;;4962750;28;20095;-85
2021/08/10 12:42:03;;;;;;;0.10;0.10;;;26.00;89.20;;;;;;4962588;28;20034;-85
2021/08/10 12:44:29;;;;;;;0.10;0.10;;;25.90;88.30;;;;;;4960518;28;20038;-85
2021/08/10 12:47:00;;;;;;;0.52;0.30;;;26.10;89.60;;;;;;4960861;28;20122;-85
2021/08/10 12:49:36;;;;;;;0.00;0.00;;;26.10;89.40;;;;;;4959628;28;20031;-84
2021/08/10 12:52:12;;;;;;;0.00;0.00;;;26.00;89.50;;;;;;4962726;28;20772;-85
2021/08/10 12:54:56;;;;;;;0.00;0.00;;;26.20;88.90;;;;;;4962101;28;20126;-84